Time;durP1;ratioP1;P1;durP2;ratioP2;P2;SDS_P1;SDS_P2;PMS_P1;PMS_P2;Temp;Humidity;BMP_temperature;BMP_pressure;BME280_temperature;BME280_humidity;BME280_pressure;Samples;Min_cycle;Max_cycle;Signal;HPM_P1;HPM_P2
2022/02/03 00:00:32;;;;;;;27.80;12.10;;;;;;;-142.75;100.00;78096.16;5026452;28;20032;-68
2022/02/03 00:05:44;;;;;;;23.48;12.45;;;;;;;-142.75;100.00;78109.94;5028006;28;20041;-68
2022/02/03 00:08:18;;;;;;;27.67;12.15;;;;;;;-142.75;100.00;78107.97;5027968;28;20463;-68
2022/02/03 00:11:41;;;;;;;25.23;12.50;;;;;;;-142.75;100.00;78107.97;5028495;28;20032;-68
2022/02/03 00:28:19;;;;;;;31.38;15.48;;;;;;;-142.75;100.00;78109.94;5028536;28;20037;-68
2022/02/03 00:33:24;;;;;;;33.08;16.45;;;;;;;-142.75;100.00;78113.88;5026838;28;20037;-68
2022/02/03 00:49:34;;;;;;;30.50;16.85;;;;;;;-142.75;100.00;78086.31;5028124;28;20059;-67
2022/02/03 00:52:01;;;;;;;31.85;17.60;;;;;;;-142.75;100.00;78088.28;5027897;28;20034;-67
2022/02/03 00:54:26;;;;;;;;;;;;;;;-142.75;100.00;78086.31;5028410;28;20063;-67
2022/02/03 00:57:03;;;;;;;31.77;15.68;;;;;;;-142.75;100.00;78082.38;5028134;28;19917;-67
2022/02/03 00:59:39;;;;;;;30.98;16.25;;;;;;;-142.75;100.00;78076.47;5027751;28;20032;-67
2022/02/03 01:02:08;;;;;;;35.42;19.25;;;;;;;-142.75;100.00;78084.34;5028066;28;20025;-67
2022/02/03 01:04:37;;;;;;;33.03;17.67;;;;;;;-142.75;100.00;78078.44;5028214;28;20036;-67
2022/02/03 01:07:08;;;;;;;44.45;21.88;;;;;;;-142.75;100.00;78076.47;5027979;28;20025;-67
2022/02/03 01:09:38;;;;;;;43.33;20.05;;;;;;;-142.75;100.00;78076.47;5026391;28;20040;-68
2022/02/03 01:21:28;;;;;;;34.05;20.25;;;;;;;-142.75;100.00;78090.25;4971107;28;20064;-67
2022/02/03 01:37:49;;;;;;;43.58;20.45;;;;;;;-142.75;100.00;78074.50;5031069;28;20107;-67
2022/02/03 01:45:52;;;;;;;42.55;20.98;;;;;;;-142.75;100.00;78068.59;5031967;28;20518;-67
2022/02/03 01:53:34;;;;;;;34.73;20.27;;;;;;;-142.75;100.00;78086.31;5030851;28;20040;-67
2022/02/03 01:56:09;;;;;;;36.78;20.20;;;;;;;-142.75;100.00;78078.44;5031043;28;20383;-67
2022/02/03 01:58:47;;;;;;;32.28;18.90;;;;;;;-142.75;100.00;78078.44;5030593;28;20025;-67
2022/02/03 02:01:19;;;;;;;33.42;19.10;;;;;;;-142.75;100.00;78078.44;5031116;28;20021;-67
2022/02/03 02:04:30;;;;;;;35.22;19.25;;;;;;;-142.75;100.00;78082.38;5030680;28;20025;-67
2022/02/03 02:07:33;;;;;;;32.80;16.80;;;;;;;-142.75;100.00;78078.44;4985358;28;20045;-68
2022/02/03 02:13:10;;;;;;;30.23;16.43;;;;;;;-142.75;100.00;78072.53;5030708;28;20029;-67
2022/02/03 02:43:46;;;;;;;20.13;9.85;;;;;;;-142.75;100.00;78041.00;5029958;28;20029;-67
2022/02/03 02:46:21;;;;;;;20.02;9.95;;;;;;;-142.75;100.00;78027.22;5030593;28;20476;-68
2022/02/03 02:48:55;;;;;;;22.42;11.07;;;;;;;-142.75;100.00;78025.25;5030037;28;20533;-67
2022/02/03 02:51:30;;;;;;;24.60;10.20;;;;;;;-142.75;100.00;78023.28;5029817;28;20026;-67
2022/02/03 02:57:09;;;;;;;20.35;9.45;;;;;;;-142.75;100.00;78015.41;5029842;28;20117;-67
2022/02/03 03:33:14;;;;;;;23.35;11.23;;;;;;;-142.75;100.00;78015.41;5029362;28;20029;-67
2022/02/03 03:38:22;;;;;;;26.30;10.97;;;;;;;-142.75;100.00;78021.31;5028786;28;20109;-68
2022/02/03 03:40:53;;;;;;;22.37;11.23;;;;;;;-142.75;100.00;78019.34;5028378;28;20060;-67
2022/02/03 03:43:28;;;;;;;20.13;10.50;;;;;;;-142.75;100.00;78011.47;5027636;28;20075;-67
2022/02/03 03:45:55;;;;;;;23.97;11.87;;;;;;;-142.75;100.00;78011.47;5029370;28;20025;-67
2022/02/03 03:48:26;;;;;;;27.33;11.83;;;;;;;-142.75;100.00;78009.50;5029123;28;20025;-68
2022/02/03 03:50:53;;;;;;;22.87;11.33;;;;;;;-142.75;100.00;78023.28;5027709;28;20028;-67
2022/02/03 03:53:29;;;;;;;24.60;10.47;;;;;;;-142.75;100.00;78021.31;5028725;28;20033;-67
2022/02/03 04:28:42;;;;;;;19.90;8.67;;;;;;;-142.75;100.00;78023.28;5028836;28;20504;-67
2022/02/03 04:45:11;;;;;;;15.77;4.87;;;;;;;-142.75;100.00;78011.47;5027871;28;20048;-69
2022/02/03 04:54:30;;;;;;;15.10;4.57;;;;;;;-142.75;100.00;78009.50;5031986;28;20417;-68
2022/02/03 04:57:08;;;;;;;12.30;4.23;;;;;;;-142.75;100.00;78003.59;5031913;28;20071;-68
2022/02/03 05:00:24;;;;;;;16.73;4.22;;;;;;;-142.75;100.00;77999.66;5031573;28;20121;-68
2022/02/03 05:06:08;;;;;;;10.53;3.70;;;;;;;-142.75;100.00;77997.69;5012498;28;20395;-67
2022/02/03 05:09:33;;;;;;;6.30;3.58;;;;;;;-142.75;100.00;77991.78;5011602;28;20056;-68
2022/02/03 05:12:20;;;;;;;12.43;3.53;;;;;;;-142.75;100.00;77985.88;5012070;28;20025;-68
2022/02/03 05:15:19;;;;;;;;;;;;;;;-142.75;100.00;77974.06;5012647;28;20030;-67
2022/02/03 05:22:07;;;;;;;14.17;3.87;;;;;;;-142.75;100.00;77968.16;4988901;28;20447;-68
2022/02/03 05:34:56;;;;;;;16.13;3.60;;;;;;;-142.75;100.00;77952.41;5022577;28;20041;-68
2022/02/03 06:01:29;;;;;;;12.07;2.90;;;;;;;-142.75;100.00;77952.41;5031182;28;20032;-68
2022/02/03 06:04:31;;;;;;;11.73;3.30;;;;;;;-142.75;100.00;77948.47;5029420;28;20072;-67
2022/02/03 06:11:58;;;;;;;9.73;3.10;;;;;;;-142.75;100.00;77948.47;5030450;28;20041;-68
2022/02/03 06:12:52;;;;;;;10.47;2.80;;;;;;;-142.75;100.00;77940.59;5030286;28;20099;-67
2022/02/03 06:15:45;;;;;;;11.67;2.93;;;;;;;-142.75;100.00;77940.59;5030866;28;20030;-68
2022/02/03 06:21:25;;;;;;;6.17;2.90;;;;;;;-142.75;100.00;77952.41;5030415;28;20095;-68
2022/02/03 06:29:38;;;;;;;11.83;3.57;;;;;;;-142.75;100.00;77944.53;5030029;28;19920;-68
2022/02/03 06:32:04;;;;;;;8.17;3.97;;;;;;;-142.75;100.00;77934.69;5030440;28;20080;-68
2022/02/03 06:34:29;;;;;;;10.40;3.92;;;;;;;-142.75;100.00;77942.56;5030149;28;20387;-67
2022/02/03 06:36:55;;;;;;;11.25;3.97;;;;;;;-142.75;100.00;77944.53;5028933;28;20403;-68
2022/02/03 06:39:23;;;;;;;11.27;4.47;;;;;;;-142.75;100.00;77956.34;5029715;28;20053;-68
2022/02/03 06:41:52;;;;;;;10.57;4.30;;;;;;;-142.75;100.00;77946.50;5028716;28;20406;-68
2022/02/03 06:44:19;;;;;;;10.73;4.77;;;;;;;-142.75;100.00;77940.59;5029894;28;20053;-68
2022/02/03 06:46:49;;;;;;;16.30;5.03;;;;;;;-142.75;100.00;77944.53;5030461;28;20021;-68
2022/02/03 06:51:51;;;;;;;12.97;4.17;;;;;;;-142.75;100.00;77936.66;5029865;28;20025;-67
2022/02/03 06:54:26;;;;;;;12.93;4.57;;;;;;;-142.75;100.00;77936.66;5029685;28;20064;-67
2022/02/03 06:56:56;;;;;;;11.77;4.80;;;;;;;-142.75;100.00;77940.59;5029819;28;20517;-67
2022/02/03 06:59:29;;;;;;;12.50;5.73;;;;;;;-142.75;100.00;77940.59;5033095;28;20396;-68
2022/02/03 07:01:55;;;;;;;8.40;4.60;;;;;;;-142.75;100.00;77934.69;5035471;28;20375;-68
2022/02/03 07:04:24;;;;;;;14.68;5.20;;;;;;;-142.75;100.00;77944.53;5029700;28;20025;-68
2022/02/03 07:06:50;;;;;;;12.37;5.63;;;;;;;-142.75;100.00;77940.59;5030226;28;20036;-68
2022/02/03 07:09:15;;;;;;;11.60;4.82;;;;;;;-142.75;100.00;77940.59;5029240;28;20072;-68
2022/02/03 07:11:42;;;;;;;20.13;5.97;;;;;;;-142.75;100.00;77940.59;5029528;28;20498;-68
2022/02/03 07:14:09;;;;;;;20.93;6.30;;;;;;;-142.75;100.00;77948.47;5028888;28;20022;-68
2022/02/03 07:16:43;;;;;;;14.23;6.43;;;;;;;-142.75;100.00;77944.53;5029746;28;20037;-67
2022/02/03 07:19:08;;;;;;;15.63;6.70;;;;;;;-142.75;100.00;77938.63;5018455;28;20110;-68
2022/02/03 07:21:33;;;;;;;18.33;6.53;;;;;;;-142.75;100.00;77948.47;5014206;28;20108;-68
2022/02/03 07:23:58;;;;;;;17.42;7.22;;;;;;;-142.75;100.00;77946.50;5009541;28;20030;-68
2022/02/03 07:26:24;;;;;;;17.47;7.30;;;;;;;-142.75;100.00;77938.63;5009321;28;20025;-68
2022/02/03 07:28:49;;;;;;;16.73;7.05;;;;;;;-142.75;100.00;77938.63;5009445;28;20334;-69
2022/02/03 07:31:14;;;;;;;16.95;8.05;;;;;;;-142.75;100.00;77940.59;5022569;28;20037;-68
2022/02/03 07:33:40;;;;;;;18.13;8.27;;;;;;;-142.75;100.00;77936.66;5027669;28;20110;-68
2022/02/03 07:36:05;;;;;;;17.27;8.50;;;;;;;-142.75;100.00;77940.59;5028775;28;20471;-68
2022/02/03 07:38:31;;;;;;;16.98;8.60;;;;;;;-142.75;100.00;77936.66;5027435;28;20103;-68
2022/02/03 07:40:56;;;;;;;21.73;9.60;;;;;;;-142.75;100.00;77940.59;5028940;28;20109;-68
2022/02/03 07:43:22;;;;;;;16.83;8.57;;;;;;;-142.75;100.00;77944.53;5028868;28;20022;-68
2022/02/03 07:45:48;;;;;;;24.30;9.20;;;;;;;-142.75;100.00;77958.31;5028993;28;20071;-68
2022/02/03 07:48:13;;;;;;;18.38;10.07;;;;;;;-142.75;100.00;77962.25;5029065;28;20037;-68
2022/02/03 07:50:38;;;;;;;15.55;9.35;;;;;;;-142.75;100.00;77954.38;5009022;28;20041;-68
2022/02/03 07:53:04;;;;;;;18.70;8.88;;;;;;;-142.75;100.00;77964.22;5009117;28;20080;-68
2022/02/03 07:55:29;;;;;;;23.70;9.90;;;;;;;-142.75;100.00;77958.31;5009026;28;20022;-68
2022/02/03 07:57:55;;;;;;;22.95;10.57;;;;;;;-142.75;100.00;77968.16;5008762;28;20059;-68
2022/02/03 08:00:22;;;;;;;20.00;10.40;;;;;;;-142.75;100.00;77966.19;5009070;28;20041;-68
2022/02/03 08:02:47;;;;;;;17.17;9.43;;;;;;;-142.75;100.00;77972.09;5008757;28;20387;-67
2022/02/03 08:05:17;;;;;;;17.45;10.60;;;;;;;-142.75;100.00;77964.22;5007054;28;20034;-68
2022/02/03 08:07:50;;;;;;;19.77;11.03;;;;;;;-142.75;100.00;77979.97;5008340;28;20057;-68
2022/02/03 08:10:32;;;;;;;23.77;10.77;;;;;;;-142.75;100.00;77972.09;5008141;28;20025;-68
2022/02/03 08:13:00;;;;;;;24.07;11.50;;;;;;;-142.75;100.00;77981.94;5027631;28;20480;-68
2022/02/03 08:15:27;;;;;;;21.87;12.10;;;;;;;-142.75;100.00;77983.91;5027643;28;20025;-68
2022/02/03 08:17:59;;;;;;;23.00;12.10;;;;;;;-142.75;100.00;77991.78;5027065;28;20052;-68
2022/02/03 08:20:26;;;;;;;28.43;12.97;;;;;;;-142.75;100.00;77993.75;5022921;28;20547;-68
2022/02/03 08:23:10;;;;;;;24.23;13.20;;;;;;;-142.75;100.00;78003.59;5016096;28;20057;-68
2022/02/03 08:25:40;;;;;;;23.47;12.47;;;;;;;-142.75;100.00;77987.84;5016251;28;20080;-68
2022/02/03 08:30:47;;;;;;;26.00;13.40;;;;;;;-142.75;100.00;77987.84;5013663;28;20030;-68
2022/02/03 08:33:19;;;;;;;24.40;13.30;;;;;;;-142.75;100.00;77983.91;5008118;28;20507;-68
2022/02/03 08:35:48;;;;;;;23.93;11.53;;;;;;;-142.75;100.00;77979.97;5008000;28;20032;-67
2022/02/03 08:38:32;;;;;;;21.63;12.03;;;;;;;-142.75;100.00;77983.91;5023015;28;20069;-68
2022/02/03 08:43:24;;;;;;;24.85;13.30;;;;;;;-142.75;100.00;77979.97;5008505;28;20129;-68
2022/02/03 08:45:49;;;;;;;23.80;13.20;;;;;;;-142.75;100.00;77970.13;5007984;28;20030;-68
2022/02/03 08:48:15;;;;;;;31.55;15.30;;;;;;;-142.75;100.00;77976.03;5007062;28;20025;-68
2022/02/03 08:50:41;;;;;;;;;;;;;;;-142.75;100.00;77976.03;5008767;28;20025;-68
2022/02/03 08:53:16;;;;;;;29.07;14.27;;;;;;;-142.75;100.00;77979.97;5008392;28;20012;-67
2022/02/03 09:28:24;;;;;;;27.03;15.40;;;;;;;-142.75;100.00;77966.19;5026534;28;20044;-68
2022/02/03 09:52:49;;;;;;;26.97;10.73;;;;;;;-142.75;100.00;77991.78;5021938;28;20036;-67
2022/02/03 09:55:40;;;;;;;30.35;10.70;;;;;;;-142.75;100.00;77989.81;5011559;28;20504;-68
2022/02/03 09:58:18;;;;;;;24.40;10.80;;;;;;;-142.75;100.00;77983.91;5011097;28;20025;-68
2022/02/03 10:01:04;;;;;;;29.10;10.80;;;;;;;-142.75;100.00;77970.13;5010605;28;20466;-69
2022/02/03 10:03:39;;;;;;;22.20;9.07;;;;;;;-142.75;100.00;77972.09;5010456;28;20553;-68
2022/02/03 10:06:13;;;;;;;23.27;9.80;;;;;;;-142.75;100.00;77960.28;5010790;28;20026;-68
2022/02/03 10:08:55;;;;;;;18.47;8.13;;;;;;;-142.75;100.00;77964.22;5010239;28;20022;-68
2022/02/03 10:11:21;;;;;;;19.70;8.20;;;;;;;-142.75;100.00;77960.28;5009811;28;20030;-69
2022/02/03 10:13:48;;;;;;;;;;;;;;;-142.75;100.00;77956.34;5010230;28;20113;-68
2022/02/03 10:16:15;;;;;;;25.45;9.40;;;;;;;-142.75;100.00;77958.31;5008928;28;19913;-67
2022/02/03 10:18:42;;;;;;;24.07;8.20;;;;;;;-142.75;100.00;77956.34;5010251;28;20029;-67
2022/02/03 10:21:11;;;;;;;15.77;8.60;;;;;;;-142.75;100.00;77938.63;5008588;28;20026;-68
2022/02/03 10:23:54;;;;;;;18.80;8.93;;;;;;;-142.75;100.00;77938.63;5009703;28;20378;-68
2022/02/03 10:26:20;;;;;;;22.00;8.87;;;;;;;-142.75;100.00;77942.56;5009972;28;20029;-68
2022/02/03 10:28:54;;;;;;;18.00;8.23;;;;;;;-142.75;100.00;77944.53;5009663;28;20026;-68
2022/02/03 10:31:23;;;;;;;15.50;7.83;;;;;;;-142.75;100.00;77926.81;5020138;28;20026;-68
2022/02/03 10:33:53;;;;;;;15.63;7.90;;;;;;;-142.75;100.00;77913.03;5015631;28;20500;-68
2022/02/03 10:36:41;;;;;;;17.30;7.60;;;;;;;-142.75;100.00;77901.19;5008489;28;20030;-68
2022/02/03 10:42:02;;;;;;;14.90;7.37;;;;;;;-142.75;100.00;77891.34;5009843;28;20491;-66
2022/02/03 10:45:03;;;;;;;17.20;8.30;;;;;;;-142.75;100.00;77885.44;5009509;28;20060;-65
2022/02/03 10:48:07;;;;;;;15.93;8.27;;;;;;;-142.75;100.00;77869.69;5016252;28;20116;-66
2022/02/03 10:55:59;;;;;;;23.10;8.47;;;;;;;-142.75;100.00;77883.47;5020276;28;20042;-66
2022/02/03 11:01:19;;;;;;;14.90;9.02;;;;;;;-142.75;100.00;77885.44;5012039;28;20164;-65
2022/02/03 11:08:54;;;;;;;18.92;9.68;;;;;;;-142.75;100.00;77846.06;5016553;28;20113;-67
2022/02/03 11:11:33;;;;;;;25.13;10.55;;;;;;;-142.75;100.00;77844.09;5009006;28;20034;-67
2022/02/03 11:14:00;;;;;;;18.65;9.45;;;;;;;-142.75;100.00;77850.00;5008960;28;20025;-67
2022/02/03 11:16:26;;;;;;;18.30;10.13;;;;;;;-142.75;100.00;77828.34;5008278;28;20037;-66
2022/02/03 11:18:52;;;;;;;24.60;10.40;;;;;;;-142.75;100.00;77822.44;5020469;28;20029;-67
2022/02/03 11:21:17;;;;;;;;;;;;;;;-142.75;100.00;77806.69;5019825;28;20022;-67
2022/02/03 11:23:50;;;;;;;22.87;10.07;;;;;;;-142.75;100.00;77808.66;5022048;28;19920;-66
2022/02/03 11:26:30;;;;;;;18.60;10.13;;;;;;;-142.75;100.00;77826.38;5019020;28;20025;-67
2022/02/03 11:37:18;;;;;;;20.65;10.85;;;;;;;-142.75;100.00;77798.81;5022889;28;20038;-67
2022/02/03 12:02:22;;;;;;;25.50;12.40;;;;;;;-142.75;100.00;77779.13;5007866;28;20122;-67
2022/02/03 12:10:20;;;;;;;24.27;11.27;;;;;;;-142.75;100.00;77790.94;5022720;28;20063;-67
2022/02/03 12:13:35;;;;;;;26.00;12.97;;;;;;;-142.75;100.00;77779.13;5029557;28;20029;-67
2022/02/03 12:21:33;;;;;;;24.37;11.70;;;;;;;-142.75;100.00;77777.16;5019337;28;20026;-67
2022/02/03 12:27:46;;;;;;;26.60;13.63;;;;;;;-142.75;100.00;77783.06;4990534;28;20526;-67
2022/02/03 12:30:25;;;;;;;21.23;11.83;;;;;;;-142.75;100.00;77761.41;5009613;28;20026;-67
2022/02/03 12:41:10;;;;;;;23.55;13.65;;;;;;;-142.75;100.00;77761.41;5028081;28;20041;-67
2022/02/03 12:43:39;;;;;;;23.50;13.07;;;;;;;-142.75;100.00;77767.31;5013056;28;20017;-67
2022/02/03 12:46:06;;;;;;;23.97;12.83;;;;;;;-142.75;100.00;77771.25;5023428;28;20018;-67
2022/02/03 12:48:35;;;;;;;24.70;13.80;;;;;;;-142.75;100.00;77783.06;5026887;28;20029;-67
2022/02/03 12:51:02;;;;;;;30.20;13.23;;;;;;;-142.75;100.00;77787.00;5013163;28;20187;-68
2022/02/03 12:53:32;;;;;;;24.83;13.10;;;;;;;-142.75;100.00;77790.94;5014021;28;20041;-67
2022/02/03 12:55:58;;;;;;;27.73;12.50;;;;;;;-142.75;100.00;77796.84;5021752;28;20026;-68
2022/02/03 12:58:26;;;;;;;22.55;12.35;;;;;;;-142.75;100.00;77783.06;5016973;28;20026;-68
2022/02/03 13:00:59;;;;;;;27.83;12.20;;;;;;;-142.75;100.00;77775.19;5012475;28;20029;-67
2022/02/03 13:03:30;;;;;;;23.27;13.07;;;;;;;-142.75;100.00;77779.13;5023264;28;20108;-68
2022/02/03 13:06:02;;;;;;;21.67;12.43;;;;;;;-142.75;100.00;77763.38;5019621;28;20037;-68
2022/02/03 13:08:40;;;;;;;21.13;12.27;;;;;;;-142.75;100.00;77755.50;5016467;28;20377;-67
2022/02/03 13:11:16;;;;;;;25.45;11.35;;;;;;;-142.75;100.00;77763.38;5019356;28;20654;-68
2022/02/03 13:14:37;;;;;;;20.20;11.52;;;;;;;-142.75;100.00;77755.50;5023348;28;20030;-68
2022/02/03 13:16:30;;;;;;;20.57;11.30;;;;;;;-142.75;100.00;77763.38;5012378;28;20115;-67
2022/02/03 13:19:17;;;;;;;19.85;10.90;;;;;;;-142.75;100.00;77769.28;5024471;28;20029;-68
2022/02/03 13:26:39;;;;;;;16.30;9.43;;;;;;;-142.75;100.00;77769.28;5032616;28;20073;-68
2022/02/03 13:29:08;;;;;;;19.83;9.77;;;;;;;-142.75;100.00;77749.59;5032070;28;20135;-67
2022/02/03 13:31:49;;;;;;;17.93;9.73;;;;;;;-142.75;100.00;77718.06;5031780;28;20033;-66
2022/02/03 13:34:28;;;;;;;26.80;9.90;;;;;;;-142.75;100.00;77725.97;5032700;28;20451;-67
2022/02/03 13:37:02;;;;;;;20.50;10.37;;;;;;;-142.75;100.00;77727.94;5020389;28;20087;-68
2022/02/03 13:39:29;;;;;;;16.27;8.93;;;;;;;-142.75;100.00;77739.75;5022583;28;20033;-68
2022/02/03 13:42:03;;;;;;;17.33;8.70;;;;;;;-142.75;100.00;77733.84;5026167;28;20549;-68
2022/02/03 13:44:30;;;;;;;16.40;9.00;;;;;;;-142.75;100.00;77733.84;5031735;28;20540;-69
2022/02/03 13:46:57;;;;;;;18.80;9.63;;;;;;;-142.75;100.00;77731.88;5011171;28;20026;-68
2022/02/03 13:49:27;;;;;;;16.50;8.57;;;;;;;-142.75;100.00;77747.63;5011356;28;20025;-69
2022/02/03 13:52:07;;;;;;;12.80;7.43;;;;;;;-142.75;100.00;77751.56;5010579;28;20025;-68
2022/02/03 14:10:33;;;;;;;18.10;9.50;;;;;;;-142.75;100.00;77731.88;5025469;28;20040;-68
2022/02/03 14:14:37;;;;;;;16.00;9.10;;;;;;;-142.75;100.00;77706.25;5019804;28;20040;-68
2022/02/03 14:22:00;;;;;;;15.17;9.07;;;;;;;-142.75;100.00;77688.53;5012062;28;20545;-68
2022/02/03 14:29:45;;;;;;;19.53;9.43;;;;;;;-142.75;100.00;77672.78;5030792;28;20033;-68
2022/02/03 14:32:14;;;;;;;18.60;9.27;;;;;;;-142.75;100.00;77672.78;5030604;28;20033;-68
2022/02/03 14:34:39;;;;;;;17.23;9.20;;;;;;;-142.75;100.00;77662.94;5024846;28;20026;-68
2022/02/03 14:37:28;;;;;;;14.57;8.93;;;;;;;-142.75;100.00;77668.84;5031815;28;20071;-67
2022/02/03 14:40:24;;;;;;;16.73;10.17;;;;;;;-142.75;100.00;77649.16;5017399;28;20438;-67
2022/02/03 14:42:43;;;;;;;16.70;8.93;;;;;;;-142.75;100.00;77647.19;5027023;22;20065;-70
2022/02/03 14:45:11;;;;;;;18.80;9.90;;;;;;;-142.75;100.00;77643.25;4992416;28;20038;-70
2022/02/03 14:47:36;;;;;;;14.50;9.03;;;;;;;-142.75;100.00;77653.09;4990323;28;20019;-69
2022/02/03 14:50:05;;;;;;;13.70;9.35;;;;;;;-142.75;100.00;77645.22;4991372;28;20504;-69
2022/02/03 14:52:34;;;;;;;18.30;9.57;;;;;;;-142.75;100.00;77637.34;4991188;28;20392;-69
2022/02/03 15:00:28;;;;;;;12.70;8.30;;;;;;;-142.75;100.00;77639.31;4990996;28;20096;-67
2022/02/03 15:02:55;;;;;;;14.38;8.98;;;;;;;-142.75;100.00;77619.63;4990716;28;20018;-67
2022/02/03 15:05:33;;;;;;;17.83;10.40;;;;;;;-142.75;100.00;77621.59;4990436;28;20022;-67
2022/02/03 15:08:03;;;;;;;14.97;9.00;;;;;;;-142.75;100.00;77629.47;4989026;28;20439;-67
2022/02/03 15:15:55;;;;;;;16.10;8.17;;;;;;;-142.75;100.00;77621.59;4999466;28;20037;-67
2022/02/03 15:18:21;;;;;;;14.07;8.30;;;;;;;-142.75;100.00;77617.66;5019918;28;20029;-69
2022/02/03 15:20:46;;;;;;;14.63;8.98;;;;;;;-142.75;100.00;77619.63;5005671;28;20025;-66
2022/02/03 15:23:11;;;;;;;14.38;8.43;;;;;;;-142.75;100.00;77615.69;5002058;28;20480;-66
2022/02/03 15:25:37;;;;;;;16.08;8.85;;;;;;;-142.75;100.00;77611.75;4995061;28;20026;-67
2022/02/03 15:28:02;;;;;;;13.35;8.07;;;;;;;-142.75;100.00;77615.69;5008673;28;20021;-66
2022/02/03 15:30:28;;;;;;;15.30;8.55;;;;;;;-142.75;100.00;77623.56;4999627;28;20022;-66
2022/02/03 15:32:53;;;;;;;17.10;8.65;;;;;;;-142.75;100.00;77621.59;4997117;28;20073;-67
2022/02/03 15:35:36;;;;;;;13.82;8.25;;;;;;;-142.75;100.00;77621.59;4994075;28;20030;-67
2022/02/03 15:38:04;;;;;;;13.10;7.93;;;;;;;-142.75;100.00;77629.47;4989171;28;20555;-67
2022/02/03 15:40:30;;;;;;;13.18;8.82;;;;;;;-142.75;100.00;77637.34;5006135;28;20050;-67
2022/02/03 15:45:22;;;;;;;14.90;9.07;;;;;;;-142.75;100.00;77627.50;5006953;28;20036;-67
2022/02/03 15:47:54;;;;;;;14.30;8.95;;;;;;;-142.75;100.00;77621.59;5000724;28;21011;-67
2022/02/03 15:59:33;;;;;;;15.50;8.43;;;;;;;-142.75;100.00;77633.41;4988781;28;20133;-67
2022/02/03 16:16:12;;;;;;;14.43;9.03;;;;;;;-142.75;100.00;77627.50;5007558;28;20050;-68
2022/02/03 16:17:55;;;;;;;13.67;8.80;;;;;;;-142.75;100.00;77619.63;5002356;28;20107;-67
2022/02/03 16:20:25;;;;;;;15.70;9.07;;;;;;;-142.75;100.00;77617.66;5006552;28;20049;-67
2022/02/03 16:26:29;;;;;;;14.63;9.47;;;;;;;-142.75;100.00;77629.47;4990630;28;20053;-67
2022/02/03 16:52:53;;;;;;;14.55;7.63;;;;;;;-142.75;100.00;77621.59;4994785;28;20112;-71
2022/02/03 16:55:22;;;;;;;13.70;7.77;;;;;;;-142.75;100.00;77625.53;5000282;28;20407;-71
2022/02/03 16:57:50;;;;;;;13.63;8.17;;;;;;;-142.75;100.00;77629.47;4989893;28;20026;-71
2022/02/03 17:00:18;;;;;;;11.93;7.93;;;;;;;-142.75;100.00;77615.69;4989613;28;20030;-71
2022/02/03 17:02:43;;;;;;;13.10;8.20;;;;;;;-142.75;100.00;77617.66;4989816;28;20018;-70
2022/02/03 17:05:09;;;;;;;12.32;8.13;;;;;;;-142.75;100.00;77619.63;4989758;28;20480;-70
2022/02/03 17:07:35;;;;;;;10.37;7.53;;;;;;;-142.75;100.00;77619.63;4989583;28;20030;-71
2022/02/03 17:10:01;;;;;;;10.30;6.97;;;;;;;-142.75;100.00;77609.78;4989414;28;20058;-69
2022/02/03 17:12:26;;;;;;;13.05;6.47;;;;;;;-142.75;100.00;77605.84;4993826;28;20521;-71
2022/02/03 17:14:52;;;;;;;9.15;6.30;;;;;;;-142.75;100.00;77605.84;4989380;28;20034;-69
2022/02/03 17:17:20;;;;;;;9.60;6.07;;;;;;;-142.75;100.00;77601.91;4992875;28;20034;-69
2022/02/03 17:19:49;;;;;;;10.10;6.50;;;;;;;-142.75;100.00;77601.91;4989662;28;20065;-69
2022/02/03 17:22:19;;;;;;;11.97;6.50;;;;;;;-142.75;100.00;77601.91;4988143;28;20400;-69
2022/02/03 17:24:57;;;;;;;12.50;6.50;;;;;;;-142.75;100.00;77599.94;4989353;28;20093;-70
2022/02/03 17:27:29;;;;;;;8.60;5.82;;;;;;;-142.75;100.00;77594.03;5003095;28;20025;-70
2022/02/03 17:45:10;;;;;;;12.83;6.03;;;;;;;-142.75;100.00;77597.97;5008687;28;20033;-70
2022/02/03 17:52:17;;;;;;;14.00;7.40;;;;;;;-142.75;100.00;77607.81;5008796;28;20095;-70
2022/02/03 18:18:41;;;;;;;14.77;8.30;;;;;;;-142.75;100.00;77631.44;5003546;28;20710;-70
2022/02/03 18:27:02;;;;;;;14.63;8.93;;;;;;;-142.75;100.00;77631.44;4991920;28;20033;-70
2022/02/03 18:32:22;;;;;;;14.00;9.23;;;;;;;-142.75;100.00;77625.53;4996413;28;20065;-70
2022/02/03 18:34:51;;;;;;;12.60;8.83;;;;;;;-142.75;100.00;77621.59;4991989;28;20022;-71
2022/02/03 18:50:38;;;;;;;19.48;11.18;;;;;;;-142.75;100.00;77629.47;5012210;28;20458;-70
2022/02/03 19:27:28;;;;;;;25.48;14.73;;;;;;;-142.75;100.00;77615.69;5007672;28;20128;-70
2022/02/03 20:02:57;;;;;;;23.90;13.07;;;;;;;-142.75;100.00;77594.03;4990795;28;20073;-71
2022/02/03 20:08:10;;;;;;;22.33;12.67;;;;;;;-142.75;100.00;77594.03;5005741;28;20029;-70
2022/02/03 20:10:39;;;;;;;;;;;;;;;-142.75;100.00;77586.16;5010274;28;20080;-70
2022/02/03 20:13:04;;;;;;;21.03;12.53;;;;;;;-142.75;100.00;77594.03;5009718;28;19921;-70
2022/02/03 20:15:37;;;;;;;23.85;14.00;;;;;;;-142.75;100.00;77594.03;5009928;28;20109;-70
2022/02/03 20:18:04;;;;;;;26.92;13.35;;;;;;;-142.75;100.00;77594.03;5009573;28;20026;-71
2022/02/03 20:20:29;;;;;;;20.73;11.93;;;;;;;-142.75;100.00;77582.22;4990971;28;20432;-71
2022/02/03 20:22:55;;;;;;;22.92;13.32;;;;;;;-142.75;100.00;77578.28;4990083;28;20072;-70
2022/02/03 20:25:20;;;;;;;25.20;14.18;;;;;;;-142.75;100.00;77576.31;4989988;28;20033;-70
2022/02/03 20:27:45;;;;;;;27.98;14.98;;;;;;;-142.75;100.00;77572.38;4990393;28;20029;-70
2022/02/03 20:30:12;;;;;;;29.10;14.47;;;;;;;-142.75;100.00;77582.22;5024421;28;20022;-71
2022/02/03 20:32:38;;;;;;;24.13;14.10;;;;;;;-142.75;100.00;77578.28;5009330;28;20288;-70
2022/02/03 20:35:04;;;;;;;21.75;13.02;;;;;;;-142.75;100.00;77568.44;4990937;28;20022;-70
2022/02/03 20:37:30;;;;;;;23.97;13.33;;;;;;;-142.75;100.00;77570.41;5003638;28;20037;-71
2022/02/03 20:39:55;;;;;;;26.70;14.80;;;;;;;-142.75;100.00;77570.41;5009016;28;20083;-70
2022/02/03 20:42:20;;;;;;;23.42;12.90;;;;;;;-142.75;100.00;77574.34;5007666;28;20523;-71
2022/02/03 20:44:49;;;;;;;23.42;13.68;;;;;;;-142.75;100.00;77580.25;5004329;28;20100;-71
2022/02/03 20:47:14;;;;;;;26.90;14.63;;;;;;;-142.75;100.00;77572.38;5008138;28;20452;-70
2022/02/03 20:49:41;;;;;;;24.00;13.15;;;;;;;-142.75;100.00;77572.38;4995700;28;20101;-69
2022/02/03 20:52:06;;;;;;;23.10;14.10;;;;;;;-142.75;100.00;77570.41;4991169;28;20125;-69
2022/02/03 20:54:32;;;;;;;24.05;13.73;;;;;;;-142.75;100.00;77570.41;5000754;28;20113;-70
2022/02/03 20:56:57;;;;;;;23.70;14.10;;;;;;;-142.75;100.00;77574.34;4998097;28;20137;-70
2022/02/03 20:59:33;;;;;;;23.75;12.65;;;;;;;-142.75;100.00;77566.47;5002385;28;20054;-71
2022/02/03 21:02:02;;;;;;;25.60;14.10;;;;;;;-142.75;100.00;77562.53;5003443;28;20018;-70
2022/02/03 21:04:47;;;;;;;21.85;12.15;;;;;;;-142.75;100.00;77572.38;4998136;28;20022;-69
2022/02/03 21:07:12;;;;;;;22.85;12.48;;;;;;;-142.75;100.00;77562.53;5004961;28;20498;-70
2022/02/03 21:09:38;;;;;;;24.97;12.67;;;;;;;-142.75;100.00;77570.41;5007182;28;20026;-70
2022/02/03 21:12:03;;;;;;;24.52;11.90;;;;;;;-142.75;100.00;77566.47;4998442;28;20334;-70
2022/02/03 21:14:29;;;;;;;20.63;12.30;;;;;;;-142.75;100.00;77570.41;5006627;28;20053;-70
2022/02/03 21:16:54;;;;;;;24.23;12.90;;;;;;;-142.75;100.00;77574.34;5004080;28;20480;-70
2022/02/03 21:19:21;;;;;;;23.48;12.70;;;;;;;-142.75;100.00;77564.50;5002309;28;20030;-69
2022/02/03 21:21:47;;;;;;;22.50;12.67;;;;;;;-142.75;100.00;77568.44;4987517;28;20488;-69
2022/02/03 21:24:12;;;;;;;23.25;12.75;;;;;;;-142.75;100.00;77590.09;4992834;28;20068;-69
2022/02/03 21:26:40;;;;;;;25.85;14.13;;;;;;;-142.75;100.00;77578.28;4996063;28;20105;-70